Time;durP1;ratioP1;P1;durP2;ratioP2;P2;SDS_P1;SDS_P2;PMS_P1;PMS_P2;Temp;Humidity;BMP_temperature;BMP_pressure;BME280_temperature;BME280_humidity;BME280_pressure;Samples;Min_cycle;Max_cycle;Signal;HPM_P1;HPM_P2
2023/05/20 00:00:32;;;;;;;7.30;6.40;;;22.40;65.00;;;;;;221724;1262;22504;-53
2023/05/20 00:05:51;;;;;;;8.00;6.20;;;22.40;64.50;;;;;;221711;1256;24207;-56
2023/05/20 00:10:55;;;;;;;5.90;5.30;;;22.30;64.20;;;;;;221828;1259;22633;-52
2023/05/20 00:15:59;;;;;;;5.60;5.10;;;22.30;64.60;;;;;;221627;1262;22522;-52
2023/05/20 00:21:04;;;;;;;7.60;5.50;;;22.30;64.70;;;;;;221913;1263;24163;-53
2023/05/20 00:26:09;;;;;;;6.60;5.60;;;22.30;64.10;;;;;;221957;1267;22552;-52
2023/05/20 00:31:13;;;;;;;6.80;6.10;;;22.30;64.10;;;;;;221840;1266;22651;-53
2023/05/20 00:36:17;;;;;;;6.00;5.50;;;22.30;64.50;;;;;;221613;1264;23880;-51
2023/05/20 00:41:21;;;;;;;5.60;5.10;;;22.30;64.10;;;;;;221513;1256;23165;-52
2023/05/20 00:46:28;;;;;;;5.70;5.20;;;22.30;64.10;;;;;;223330;1259;25317;-52
2023/05/20 00:51:32;;;;;;;6.90;5.40;;;22.30;63.90;;;;;;222095;1266;22635;-50
2023/05/20 00:56:37;;;;;;;5.80;5.20;;;22.30;63.90;;;;;;222376;1265;25176;-50
2023/05/20 01:01:41;;;;;;;6.70;5.10;;;22.30;63.90;;;;;;221749;1256;25389;-51
2023/05/20 01:06:46;;;;;;;6.30;5.60;;;22.30;64.00;;;;;;221798;1266;22511;-55
2023/05/20 01:11:58;;;;;;;5.30;4.80;;;22.30;63.60;;;;;;221822;1256;24310;-57
2023/05/20 01:17:08;;;;;;;5.80;5.20;;;22.20;64.00;;;;;;221719;1259;24231;-52
2023/05/20 01:22:13;;;;;;;5.70;5.20;;;22.20;64.00;;;;;;221930;1267;22517;-52
2023/05/20 01:27:21;;;;;;;5.50;5.00;;;22.20;64.40;;;;;;221777;1265;24432;-54
2023/05/20 01:32:30;;;;;;;5.30;4.90;;;22.20;64.00;;;;;;221881;1266;22599;-54
2023/05/20 01:37:39;;;;;;;6.10;5.60;;;22.10;64.00;;;;;;221690;1250;22751;-54
2023/05/20 01:42:45;;;;;;;6.10;5.50;;;22.10;64.10;;;;;;221880;1256;22606;-51
2023/05/20 01:47:49;;;;;;;8.30;6.00;;;22.10;64.20;;;;;;222061;1267;22513;-53
2023/05/20 01:52:53;;;;;;;5.20;4.80;;;22.10;64.40;;;;;;221988;1259;24310;-52
2023/05/20 01:57:58;;;;;;;6.20;5.60;;;22.10;64.00;;;;;;221710;1259;24187;-54
2023/05/20 02:03:02;;;;;;;6.00;5.00;;;22.10;64.10;;;;;;221597;1256;22514;-52
2023/05/20 02:08:06;;;;;;;6.00;5.40;;;22.10;64.30;;;;;;221598;1266;22514;-52
2023/05/20 02:13:10;;;;;;;5.70;5.10;;;22.10;64.30;;;;;;221505;1265;394863;-54
2023/05/20 02:18:17;;;;;;;6.50;4.70;;;22.10;64.00;;;;;;221683;1256;22517;-54
2023/05/20 02:23:21;;;;;;;6.30;5.20;;;22.00;64.50;;;;;;221709;1268;22572;-54
2023/05/20 02:28:26;;;;;;;6.50;5.00;;;22.00;64.20;;;;;;221889;1256;22526;-54
2023/05/20 02:33:30;;;;;;;5.20;4.70;;;22.00;64.50;;;;;;221834;1257;22924;-54
2023/05/20 02:38:35;;;;;;;4.60;4.30;;;21.90;64.10;;;;;;221787;1256;24356;-52
2023/05/20 02:43:40;;;;;;;6.00;5.40;;;21.90;64.10;;;;;;221578;1259;23927;-52
2023/05/20 02:48:44;;;;;;;6.00;5.40;;;22.00;64.30;;;;;;221288;1256;22645;-48
2023/05/20 02:53:48;;;;;;;6.50;5.90;;;21.90;63.90;;;;;;222438;1259;25077;-51
2023/05/20 02:58:52;;;;;;;6.00;5.40;;;22.00;64.10;;;;;;222130;1256;22639;-54
2023/05/20 03:03:56;;;;;;;5.50;4.90;;;21.90;64.20;;;;;;222204;1263;22664;-53
2023/05/20 03:09:01;;;;;;;5.40;5.00;;;21.90;64.10;;;;;;221654;1260;22652;-53
2023/05/20 03:14:05;;;;;;;6.00;5.50;;;21.90;64.10;;;;;;221747;1257;22790;-51
2023/05/20 03:19:09;;;;;;;6.20;5.60;;;21.90;64.20;;;;;;221855;1271;25384;-56
2023/05/20 03:24:14;;;;;;;5.10;4.70;;;21.90;64.40;;;;;;221558;1257;22628;-54
2023/05/20 03:29:18;;;;;;;5.70;5.20;;;21.90;64.30;;;;;;221653;1259;25338;-52
2023/05/20 03:34:22;;;;;;;5.60;5.10;;;21.90;64.20;;;;;;221651;1259;24211;-54
2023/05/20 03:39:27;;;;;;;5.30;4.80;;;21.90;64.20;;;;;;221975;1266;24250;-53
2023/05/20 03:44:31;;;;;;;4.60;4.20;;;21.90;64.00;;;;;;221736;1256;25484;-53
2023/05/20 03:49:35;;;;;;;5.40;4.80;;;21.90;64.10;;;;;;221764;1260;25468;-54
2023/05/20 03:54:39;;;;;;;5.60;5.10;;;21.90;64.10;;;;;;221795;1266;24149;-56
2023/05/20 03:59:43;;;;;;;5.20;4.80;;;21.90;64.20;;;;;;221690;1264;25448;-47
2023/05/20 04:04:51;;;;;;;5.10;4.60;;;21.90;64.00;;;;;;221731;1263;22512;-54
2023/05/20 04:09:57;;;;;;;5.10;4.70;;;21.90;63.90;;;;;;221836;1268;22521;-52
2023/05/20 04:15:02;;;;;;;5.30;4.80;;;21.90;63.80;;;;;;221991;1265;24194;-52
2023/05/20 04:20:19;;;;;;;6.00;4.60;;;21.80;63.90;;;;;;221836;1259;23943;-56
2023/05/20 04:25:24;;;;;;;5.20;4.70;;;21.90;64.00;;;;;;221770;1267;24266;-51
2023/05/20 04:30:32;;;;;;;4.70;4.30;;;21.90;64.10;;;;;;221909;1267;22982;-52
2023/05/20 04:35:40;;;;;;;4.80;4.40;;;21.90;64.20;;;;;;221735;1264;24314;-52
2023/05/20 04:40:45;;;;;;;5.20;4.80;;;21.80;64.00;;;;;;221689;1267;24271;-51
2023/05/20 04:45:49;;;;;;;5.30;4.80;;;21.90;63.70;;;;;;221844;1268;24246;-51
2023/05/20 04:50:53;;;;;;;8.20;4.80;;;21.80;63.80;;;;;;221770;1269;25566;-52
2023/05/20 04:55:58;;;;;;;5.70;5.10;;;21.90;63.90;;;;;;221657;1247;22564;-52
2023/05/20 05:01:03;;;;;;;5.10;4.70;;;21.80;63.70;;;;;;221844;1259;22622;-52
2023/05/20 05:06:07;;;;;;;4.80;4.30;;;21.80;64.00;;;;;;221757;1257;24058;-52
2023/05/20 05:11:11;;;;;;;5.60;4.60;;;22.00;63.80;;;;;;221718;1260;22754;-50
2023/05/20 05:16:15;;;;;;;4.50;4.20;;;22.30;63.50;;;;;;221731;1259;22512;-51
2023/05/20 05:21:20;;;;;;;4.90;4.50;;;22.60;62.20;;;;;;221859;1264;22592;-53
2023/05/20 05:26:25;;;;;;;4.50;4.20;;;22.70;61.80;;;;;;221729;1256;22522;-51
2023/05/20 05:31:29;;;;;;;4.30;4.00;;;22.90;61.90;;;;;;222046;1247;25670;-51
2023/05/20 05:36:34;;;;;;;4.60;4.30;;;23.00;61.10;;;;;;221749;1269;22520;-53
2023/05/20 05:41:39;;;;;;;5.10;4.70;;;23.10;61.00;;;;;;221859;1259;26659;-54
2023/05/20 05:46:43;;;;;;;4.60;4.20;;;23.10;60.80;;;;;;221699;1256;24405;-51
2023/05/20 05:51:49;;;;;;;4.80;4.40;;;23.10;60.60;;;;;;221780;1260;22525;-50
2023/05/20 05:56:57;;;;;;;4.30;4.00;;;23.30;60.50;;;;;;221973;1257;22518;-51
2023/05/20 06:02:02;;;;;;;4.70;4.30;;;23.30;60.50;;;;;;221692;1266;22513;-46
2023/05/20 06:07:07;;;;;;;4.10;3.80;;;23.40;60.40;;;;;;221612;1263;23020;-50
2023/05/20 06:12:12;;;;;;;4.10;3.80;;;23.50;59.80;;;;;;221973;1257;22517;-52
2023/05/20 06:17:17;;;;;;;5.80;4.00;;;23.60;59.90;;;;;;221864;1264;25633;-50
2023/05/20 06:22:25;;;;;;;4.90;4.40;;;23.50;60.00;;;;;;221908;1266;25377;-52
2023/05/20 06:27:29;;;;;;;4.10;3.80;;;23.40;60.10;;;;;;221958;1271;24062;-51
2023/05/20 06:32:33;;;;;;;5.20;4.80;;;23.40;60.20;;;;;;221690;1264;22679;-53
2023/05/20 06:37:38;;;;;;;6.50;5.00;;;23.40;60.40;;;;;;221677;1269;22761;-50
2023/05/20 06:42:43;;;;;;;7.40;5.50;;;23.30;60.60;;;;;;221726;1264;22517;-54
2023/05/20 06:47:49;;;;;;;6.40;5.10;;;23.30;61.10;;;;;;221658;1265;22530;-52
2023/05/20 06:52:53;;;;;;;7.30;5.40;;;23.30;61.00;;;;;;221782;1263;22508;-51
2023/05/20 06:57:58;;;;;;;5.60;5.10;;;23.30;60.70;;;;;;222242;1266;22545;-52
2023/05/20 07:03:02;;;;;;;5.50;4.90;;;23.30;61.00;;;;;;221742;1271;24220;-53
2023/05/20 07:08:07;;;;;;;5.10;4.70;;;23.10;60.60;;;;;;221912;1264;24240;-49
2023/05/20 07:13:11;;;;;;;6.10;4.70;;;23.00;60.90;;;;;;221823;1256;22537;-55
2023/05/20 07:18:15;;;;;;;5.30;4.80;;;23.10;61.40;;;;;;221711;1263;24411;-53
2023/05/20 07:23:25;;;;;;;7.60;5.00;;;23.10;61.00;;;;;;221762;1259;22531;-49
2023/05/20 07:28:31;;;;;;;7.90;5.60;;;23.10;61.00;;;;;;221802;1267;25219;-57
2023/05/20 07:33:36;;;;;;;6.60;5.60;;;22.90;61.30;;;;;;221414;1264;25337;-49
2023/05/20 07:38:40;;;;;;;9.90;5.60;;;22.80;61.70;;;;;;222012;1258;22741;-51
2023/05/20 07:44:01;;;;;;;6.60;5.70;;;22.90;61.60;;;;;;221656;1266;22515;-51
2023/05/20 07:49:07;;;;;;;8.00;5.70;;;22.90;61.60;;;;;;221948;1264;22515;-52
2023/05/20 07:54:11;;;;;;;6.10;5.50;;;22.90;61.70;;;;;;221810;1264;25462;-52
2023/05/20 07:59:18;;;;;;;11.80;6.00;;;22.80;61.80;;;;;;221965;1259;22651;-51
2023/05/20 08:04:25;;;;;;;7.50;6.10;;;22.90;61.70;;;;;;221602;1265;22507;-53
2023/05/20 08:09:33;;;;;;;9.20;6.10;;;22.80;61.80;;;;;;221681;1264;22515;-50
2023/05/20 08:14:39;;;;;;;8.30;6.00;;;22.80;62.20;;;;;;221478;1267;22527;-50
2023/05/20 08:19:43;;;;;;;6.10;5.40;;;22.90;62.10;;;;;;221528;1266;24337;-51
2023/05/20 08:24:50;;;;;;;9.20;6.50;;;22.80;62.00;;;;;;221681;1270;24429;-55
2023/05/20 08:29:55;;;;;;;8.40;4.90;;;22.80;62.60;;;;;;221900;1256;22990;-52
2023/05/20 08:35:03;;;;;;;6.70;6.00;;;22.90;63.00;;;;;;222036;1257;25323;-51
2023/05/20 08:40:08;;;;;;;7.90;5.90;;;22.90;63.00;;;;;;221699;1266;24288;-51
2023/05/20 08:45:17;;;;;;;7.70;5.50;;;22.90;62.70;;;;;;221775;1268;24329;-51
2023/05/20 08:50:21;;;;;;;6.50;5.90;;;22.80;62.60;;;;;;221456;1267;24298;-52
2023/05/20 08:55:41;;;;;;;8.20;5.50;;;22.90;62.60;;;;;;221560;1266;22514;-55
2023/05/20 09:00:46;;;;;;;8.40;5.50;;;22.90;62.80;;;;;;221566;1270;22648;-51
2023/05/20 09:05:52;;;;;;;31.60;16.80;;;22.90;62.40;;;;;;221722;1263;22751;-55
2023/05/20 09:10:56;;;;;;;9.70;6.10;;;22.80;62.70;;;;;;221475;1257;22557;-52
2023/05/20 09:16:02;;;;;;;6.90;5.60;;;22.90;62.10;;;;;;221698;1272;24235;-54
2023/05/20 09:21:06;;;;;;;7.60;5.40;;;23.00;61.70;;;;;;221671;1269;25403;-50
2023/05/20 09:26:11;;;;;;;7.60;5.80;;;23.00;61.70;;;;;;221596;1265;25255;-52
2023/05/20 09:31:15;;;;;;;7.50;4.70;;;23.00;62.40;;;;;;221564;1259;22727;-50
2023/05/20 09:36:23;;;;;;;7.20;5.40;;;23.00;62.20;;;;;;221653;1264;22528;-52
2023/05/20 09:41:48;;;;;;;6.70;5.20;;;23.00;61.70;;;;;;221569;1257;22633;-51
2023/05/20 09:46:53;;;;;;;9.70;6.10;;;23.00;62.00;;;;;;221548;1258;23861;-52
2023/05/20 09:51:59;;;;;;;8.10;5.70;;;23.00;61.10;;;;;;221643;1258;22550;-51
2023/05/20 09:57:06;;;;;;;7.30;5.70;;;23.00;61.30;;;;;;221673;1260;22515;-53
2023/05/20 10:02:17;;;;;;;6.30;5.60;;;23.00;61.20;;;;;;221618;1257;22552;-49
2023/05/20 10:08:35;;;;;;;5.30;4.80;;;23.00;61.10;;;;;;221593;1263;24197;-51
2023/05/20 10:14:20;;;;;;;7.60;5.80;;;23.00;61.00;;;;;;221830;1257;25626;-52
2023/05/20 10:19:45;;;;;;;8.50;6.20;;;23.00;60.60;;;;;;221993;1257;22511;-51
2023/05/20 10:25:00;;;;;;;5.50;5.00;;;23.00;60.60;;;;;;221945;1267;22531;-51
2023/05/20 10:30:30;;;;;;;6.00;5.50;;;23.00;60.70;;;;;;221704;1267;22518;-53
2023/05/20 10:35:47;;;;;;;6.10;5.70;;;23.00;61.10;;;;;;220900;1273;22515;-51
2023/05/20 10:41:10;;;;;;;5.70;5.20;;;22.90;61.00;;;;;;220843;1262;22678;-54
2023/05/20 10:46:19;;;;;;;;;;;23.00;60.90;;;;;;220751;1264;23885;-50
2023/05/20 10:51:50;;;;;;;5.50;5.10;;;23.00;60.60;;;;;;220506;1264;24370;-50
2023/05/20 10:56:56;;;;;;;5.90;5.30;;;22.90;60.30;;;;;;220631;1267;23403;-51
2023/05/20 11:02:01;;;;;;;5.80;5.40;;;22.90;60.50;;;;;;220517;1277;22571;-52
2023/05/20 11:07:06;;;;;;;6.50;5.90;;;22.90;60.80;;;;;;221341;1265;22524;-52
2023/05/20 11:12:13;;;;;;;5.50;5.10;;;22.90;60.30;;;;;;221759;1260;25277;-55
2023/05/20 11:17:20;;;;;;;5.60;5.20;;;23.00;60.30;;;;;;221472;1257;22528;-53
2023/05/20 11:22:26;;;;;;;7.60;5.40;;;23.00;60.50;;;;;;221717;1257;22548;-52
2023/05/20 11:27:31;;;;;;;6.00;5.50;;;22.90;60.10;;;;;;221692;1266;24417;-53
2023/05/20 11:32:37;;;;;;;5.50;5.10;;;22.90;60.10;;;;;;221638;1258;22999;-54
2023/05/20 11:38:25;;;;;;;6.20;5.50;;;22.90;60.20;;;;;;221643;1259;24325;-50
2023/05/20 11:43:37;;;;;;;6.30;5.70;;;22.90;60.10;;;;;;221718;1257;25489;-52
2023/05/20 11:48:54;;;;;;;5.80;5.40;;;23.00;60.10;;;;;;221706;1261;25492;-52
2023/05/20 11:54:06;;;;;;;7.00;6.20;;;22.90;60.00;;;;;;221666;1269;22527;-49
2023/05/20 11:59:14;;;;;;;7.30;5.50;;;23.00;60.00;;;;;;221747;1256;22556;-51
2023/05/20 12:04:26;;;;;;;6.70;6.20;;;23.00;60.00;;;;;;221762;1267;25684;-49
2023/05/20 12:09:35;;;;;;;6.40;5.90;;;22.90;60.10;;;;;;221873;1267;25373;-49
2023/05/20 12:14:40;;;;;;;6.50;5.70;;;22.90;60.00;;;;;;221897;1267;25272;-51
2023/05/20 12:19:44;;;;;;;6.30;5.70;;;22.90;60.10;;;;;;221769;1248;22531;-51
2023/05/20 12:24:50;;;;;;;6.40;5.90;;;22.90;60.10;;;;;;222019;1266;22538;-54
2023/05/20 12:29:57;;;;;;;6.10;5.40;;;22.90;60.00;;;;;;221797;1267;22537;-51
2023/05/20 12:35:02;;;;;;;6.50;6.00;;;22.90;59.80;;;;;;221834;1267;22626;-53
2023/05/20 12:40:09;;;;;;;6.50;6.00;;;22.90;60.30;;;;;;221877;1265;25287;-52
2023/05/20 12:45:17;;;;;;;5.80;5.40;;;22.80;59.90;;;;;;221796;1257;22647;-53
2023/05/20 12:50:24;;;;;;;5.70;5.20;;;22.90;60.00;;;;;;221692;1266;25381;-47
2023/05/20 12:55:29;;;;;;;6.40;5.50;;;22.90;60.50;;;;;;221689;1249;24239;-52
2023/05/20 13:00:34;;;;;;;6.80;6.20;;;22.90;59.90;;;;;;221362;1265;22513;-51
2023/05/20 13:05:40;;;;;;;6.10;5.60;;;22.80;60.30;;;;;;221588;1257;26181;-51
2023/05/20 13:10:45;;;;;;;5.80;5.40;;;22.90;59.90;;;;;;221410;1260;22999;-53
2023/05/20 13:16:05;;;;;;;6.80;6.20;;;22.90;59.90;;;;;;221559;1272;23912;-51
2023/05/20 13:21:12;;;;;;;7.90;7.20;;;22.80;59.80;;;;;;221609;1264;22520;-52
2023/05/20 13:26:19;;;;;;;6.10;5.60;;;22.80;59.90;;;;;;221562;1253;24256;-54
2023/05/20 13:31:25;;;;;;;6.40;5.80;;;22.80;59.90;;;;;;221788;1256;22521;-54
2023/05/20 13:43:48;;;;;;;9.80;6.40;;;23.00;60.50;;;;;;221449;1265;24221;-53
2023/05/20 13:49:00;;;;;;;6.70;6.00;;;23.20;60.30;;;;;;221921;1259;22605;-51
2023/05/20 13:54:28;;;;;;;8.80;6.10;;;23.20;60.10;;;;;;221638;1267;22587;-50
2023/05/20 13:59:59;;;;;;;9.60;6.00;;;23.20;61.20;;;;;;221668;1264;22533;-47
2023/05/20 14:05:45;;;;;;;7.70;7.10;;;23.00;62.70;;;;;;222012;1256;22630;-47
2023/05/20 14:11:09;;;;;;;8.30;7.40;;;23.20;63.30;;;;;;221698;1257;382320;-46
2023/05/20 14:16:15;;;;;;;8.40;7.70;;;23.40;64.00;;;;;;221979;1270;24292;-48
2023/05/20 14:21:25;;;;;;;12.70;7.30;;;23.40;64.30;;;;;;221779;1255;25901;-45
2023/05/20 14:26:34;;;;;;;9.00;7.40;;;23.40;64.80;;;;;;221774;1266;24347;-48
2023/05/20 14:31:52;;;;;;;9.30;7.70;;;23.40;66.10;;;;;;221819;1270;25483;-47
2023/05/20 14:37:38;;;;;;;11.40;7.70;;;23.40;67.50;;;;;;221906;1256;22879;-47
2023/05/20 14:42:47;;;;;;;10.80;7.30;;;23.50;66.50;;;;;;221833;1257;22522;-45
2023/05/20 14:47:53;;;;;;;8.20;6.90;;;23.50;65.90;;;;;;221831;1258;24818;-51
2023/05/20 14:53:00;;;;;;;7.80;7.00;;;23.40;65.70;;;;;;221752;1269;22527;-49
2023/05/20 14:58:11;;;;;;;7.90;7.00;;;23.50;65.20;;;;;;221921;1264;24294;-47
2023/05/20 15:03:16;;;;;;;8.80;7.00;;;23.50;64.50;;;;;;221878;1266;23704;-48
2023/05/20 15:08:23;;;;;;;11.80;7.60;;;23.40;64.80;;;;;;221823;1262;22517;-46
2023/05/20 15:13:29;;;;;;;9.90;7.10;;;23.60;64.20;;;;;;221806;1257;24243;-48
2023/05/20 15:19:04;;;;;;;10.30;7.90;;;23.40;64.20;;;;;;221781;1256;22521;-47
2023/05/20 15:24:38;;;;;;;8.80;7.90;;;23.40;64.20;;;;;;221688;1269;24429;-49
2023/05/20 15:29:47;;;;;;;9.60;8.00;;;23.50;63.70;;;;;;221727;1256;24184;-48
2023/05/20 15:34:54;;;;;;;11.60;8.30;;;23.50;63.60;;;;;;221676;1265;22919;-50
2023/05/20 15:39:58;;;;;;;9.10;8.30;;;23.60;63.50;;;;;;221786;1259;22520;-49
2023/05/20 15:45:06;;;;;;;10.30;7.80;;;23.40;64.20;;;;;;222017;1256;24040;-49
2023/05/20 15:50:14;;;;;;;8.20;7.50;;;23.40;63.60;;;;;;221706;1258;22619;-43
2023/05/20 15:55:21;;;;;;;8.40;7.50;;;23.40;63.70;;;;;;221600;1265;22691;-49
2023/05/20 16:00:27;;;;;;;9.20;8.40;;;23.30;63.60;;;;;;221806;1259;22522;-51
2023/05/20 16:05:33;;;;;;;10.30;8.20;;;23.30;64.00;;;;;;221651;1262;24218;-49
2023/05/20 16:10:39;;;;;;;9.80;9.00;;;23.40;63.40;;;;;;221615;1258;22731;-50
2023/05/20 16:15:48;;;;;;;10.70;9.20;;;23.30;63.30;;;;;;221735;1265;24218;-49
2023/05/20 16:20:56;;;;;;;10.30;9.30;;;23.30;63.10;;;;;;221676;1259;22633;-49
2023/05/20 16:26:00;;;;;;;10.00;9.10;;;23.30;63.20;;;;;;221733;1258;22647;-51
2023/05/20 16:31:05;;;;;;;9.10;8.40;;;23.30;63.60;;;;;;221575;1258;22626;-47
2023/05/20 16:36:10;;;;;;;10.50;9.50;;;23.20;63.50;;;;;;221606;1259;26580;-48
2023/05/20 16:41:16;;;;;;;9.30;8.60;;;23.20;63.00;;;;;;221667;1256;24187;-47
2023/05/20 16:46:21;;;;;;;9.20;8.40;;;23.20;63.00;;;;;;221512;1270;24340;-47
2023/05/20 16:51:25;;;;;;;9.30;8.60;;;23.20;63.00;;;;;;221745;1262;22557;-47
2023/05/20 16:56:30;;;;;;;10.50;9.50;;;23.10;63.30;;;;;;221531;1265;24179;-46
2023/05/20 17:01:35;;;;;;;11.20;10.10;;;23.10;62.70;;;;;;221651;1259;25380;-44
2023/05/20 17:06:41;;;;;;;11.20;10.10;;;23.10;62.70;;;;;;221732;1258;22662;-51
2023/05/20 17:11:45;;;;;;;11.00;10.10;;;23.10;62.80;;;;;;221747;1257;22530;-45
2023/05/20 17:16:50;;;;;;;11.10;10.20;;;23.10;63.10;;;;;;221637;1266;22569;-44
2023/05/20 17:21:55;;;;;;;10.70;9.90;;;23.10;62.70;;;;;;221618;1259;25325;-47
2023/05/20 17:27:02;;;;;;;10.80;9.90;;;23.00;62.70;;;;;;221512;1272;23932;-49
2023/05/20 17:32:06;;;;;;;11.90;10.90;;;23.00;62.70;;;;;;221466;1268;22550;-49
2023/05/20 17:37:12;;;;;;;10.70;9.80;;;23.00;63.00;;;;;;221756;1258;25320;-45
2023/05/20 17:42:17;;;;;;;11.90;10.90;;;23.00;62.60;;;;;;221777;1265;24257;-49
2023/05/20 17:47:22;;;;;;;11.40;10.30;;;23.00;62.70;;;;;;221739;1259;25323;-47
2023/05/20 17:52:27;;;;;;;12.50;10.50;;;23.00;63.10;;;;;;221589;1256;22515;-49
2023/05/20 17:57:31;;;;;;;11.90;10.90;;;23.20;62.60;;;;;;221951;1256;22528;-46
2023/05/20 18:02:37;;;;;;;12.10;10.90;;;23.30;63.10;;;;;;221699;1263;22518;-46
2023/05/20 18:07:42;;;;;;;12.50;11.40;;;23.20;62.60;;;;;;221752;1259;23148;-48
2023/05/20 18:12:46;;;;;;;16.50;11.80;;;23.10;63.00;;;;;;221642;1265;22616;-49
2023/05/20 18:17:50;;;;;;;13.00;11.70;;;23.30;63.00;;;;;;221717;1250;22543;-49
2023/05/20 18:22:57;;;;;;;12.20;11.10;;;23.30;63.00;;;;;;221912;1266;25622;-46
2023/05/20 18:28:02;;;;;;;15.30;12.20;;;23.30;62.90;;;;;;221715;1266;22644;-47
2023/05/20 18:33:06;;;;;;;12.60;11.40;;;23.30;63.10;;;;;;221921;1259;25411;-49
2023/05/20 18:38:11;;;;;;;12.60;11.40;;;23.20;63.30;;;;;;221750;1259;22673;-49
2023/05/20 18:43:15;;;;;;;15.30;13.20;;;23.10;63.90;;;;;;222128;1257;23871;-52
2023/05/20 18:48:22;;;;;;;16.50;14.00;;;23.10;63.60;;;;;;222158;1256;22789;-51
2023/05/20 18:53:32;;;;;;;15.40;12.40;;;23.10;64.00;;;;;;221883;1256;22530;-47
2023/05/20 18:58:41;;;;;;;23.60;16.90;;;23.10;63.90;;;;;;222115;1256;23169;-46
2023/05/20 19:03:49;;;;;;;20.80;12.20;;;23.10;63.80;;;;;;221843;1259;22515;-50
2023/05/20 19:08:55;;;;;;;17.60;12.90;;;23.20;63.90;;;;;;221989;1268;22565;-50
2023/05/20 19:14:01;;;;;;;16.20;12.50;;;23.10;64.00;;;;;;222061;1266;24173;-52
2023/05/20 19:19:05;;;;;;;14.20;11.70;;;23.30;63.60;;;;;;221941;1257;22511;-49
2023/05/20 19:24:10;;;;;;;13.70;12.20;;;23.20;64.10;;;;;;222252;1247;22522;-58
2023/05/20 19:29:14;;;;;;;13.40;11.70;;;23.30;64.00;;;;;;221744;1265;24269;-50
2023/05/20 19:34:18;;;;;;;15.40;12.50;;;23.40;63.30;;;;;;221666;1266;22530;-53
2023/05/20 19:39:22;;;;;;;13.20;12.00;;;23.30;63.50;;;;;;221719;1267;24230;-51
2023/05/20 19:44:27;;;;;;;14.20;12.70;;;23.30;63.70;;;;;;221751;1250;23883;-52
2023/05/20 19:49:31;;;;;;;12.10;10.90;;;23.20;63.40;;;;;;221655;1259;24190;-57
2023/05/20 19:54:36;;;;;;;13.70;12.50;;;23.30;63.50;;;;;;221825;1264;24736;-51
2023/05/20 19:59:40;;;;;;;13.40;12.00;;;23.30;63.40;;;;;;222014;1263;25537;-52
2023/05/20 20:04:50;;;;;;;19.60;14.70;;;23.20;63.40;;;;;;221957;1262;24260;-53
2023/05/20 20:09:54;;;;;;;13.20;11.90;;;23.20;63.40;;;;;;221947;1256;25368;-49
2023/05/20 20:15:02;;;;;;;21.20;15.90;;;23.20;62.90;;;;;;221848;1266;24199;-51
2023/05/20 20:20:12;;;;;;;16.10;14.20;;;23.20;64.50;;;;;;222107;1257;22531;-51
2023/05/20 20:25:17;;;;;;;26.40;16.20;;;23.30;63.60;;;;;;222226;1256;22622;-54
2023/05/20 20:30:22;;;;;;;17.30;12.40;;;23.30;64.50;;;;;;222102;1258;26604;-49
2023/05/20 20:35:29;;;;;;;18.30;12.70;;;23.20;63.90;;;;;;221874;1251;22537;-51
2023/05/20 20:40:38;;;;;;;15.20;12.80;;;23.10;64.00;;;;;;221699;1256;22569;-52
2023/05/20 20:45:44;;;;;;;16.50;13.10;;;23.10;63.90;;;;;;221792;1264;22610;-49
2023/05/20 20:50:48;;;;;;;15.20;12.90;;;23.10;63.80;;;;;;221792;1268;24322;-50
2023/05/20 20:55:52;;;;;;;18.10;12.50;;;23.10;63.80;;;;;;221912;1259;24136;-52
2023/05/20 21:00:56;;;;;;;16.60;12.40;;;23.10;63.80;;;;;;221945;1250;24229;-46
2023/05/20 21:06:01;;;;;;;16.40;13.60;;;23.10;64.70;;;;;;222068;1269;22634;-50
2023/05/20 21:11:05;;;;;;;13.80;12.00;;;23.20;67.10;;;;;;221998;1257;25208;-48
2023/05/20 21:16:11;;;;;;;17.10;13.80;;;23.20;67.10;;;;;;221848;1259;22561;-50
2023/05/20 21:21:20;;;;;;;18.10;14.00;;;23.10;66.50;;;;;;221812;1263;24280;-51
2023/05/20 21:26:25;;;;;;;19.50;13.50;;;23.00;66.90;;;;;;221866;1260;22544;-47
2023/05/20 21:31:30;;;;;;;18.80;13.70;;;23.20;68.60;;;;;;221783;1257;22595;-47
2023/05/20 21:36:35;;;;;;;21.00;15.00;;;23.20;68.70;;;;;;221933;1264;22592;-46
2023/05/20 21:41:40;;;;;;;15.70;13.50;;;23.10;69.50;;;;;;222078;1257;24209;-47
2023/05/20 21:46:44;;;;;;;23.20;14.40;;;23.10;69.40;;;;;;221669;1269;22669;-49
2023/05/20 21:51:48;;;;;;;14.50;13.10;;;23.10;69.20;;;;;;221834;1263;22635;-46
2023/05/20 21:56:53;;;;;;;24.70;16.90;;;23.10;69.50;;;;;;222025;1264;22514;-50
2023/05/20 22:01:59;;;;;;;17.60;15.40;;;23.30;68.40;;;;;;221904;1269;25435;-50
2023/05/20 22:07:09;;;;;;;21.10;14.90;;;23.20;67.90;;;;;;222082;1259;22563;-51
2023/05/20 22:12:14;;;;;;;16.70;13.60;;;23.00;68.70;;;;;;222058;1263;25387;-50
2023/05/20 22:17:19;;;;;;;13.80;12.40;;;23.10;68.40;;;;;;221964;1265;24190;-47
2023/05/20 22:22:23;;;;;;;15.60;13.20;;;23.20;67.80;;;;;;222077;1266;23755;-50
2023/05/20 22:27:28;;;;;;;14.10;12.70;;;23.10;68.60;;;;;;222092;1265;22486;-50
2023/05/20 22:32:33;;;;;;;13.90;12.50;;;23.00;68.20;;;;;;222204;1257;22723;-50
2023/05/20 22:37:40;;;;;;;14.70;12.70;;;23.00;68.80;;;;;;222050;1257;24195;-52
2023/05/20 22:42:45;;;;;;;12.70;11.40;;;23.00;68.70;;;;;;221689;1263;22517;-46
2023/05/20 22:47:49;;;;;;;12.80;11.60;;;23.00;68.10;;;;;;221813;1267;23010;-56
2023/05/20 22:52:54;;;;;;;13.40;12.00;;;22.90;68.80;;;;;;221937;1260;22658;-51
2023/05/20 22:57:58;;;;;;;37.60;22.00;;;23.10;68.60;;;;;;221879;1260;22514;-42
2023/05/20 23:03:02;;;;;;;14.60;12.10;;;23.10;68.90;;;;;;221741;1264;24263;-43
2023/05/20 23:08:06;;;;;;;15.80;12.30;;;23.10;68.00;;;;;;221817;1269;25408;-43
2023/05/20 23:13:10;;;;;;;12.50;11.30;;;23.00;68.20;;;;;;221533;1256;24164;-45
2023/05/20 23:18:15;;;;;;;12.60;11.40;;;23.00;67.90;;;;;;222044;1256;22516;-43
2023/05/20 23:23:19;;;;;;;13.10;11.90;;;23.00;68.10;;;;;;221805;1265;22476;-42
2023/05/20 23:28:34;;;;;;;13.80;12.20;;;22.90;67.80;;;;;;221618;1263;22523;-44
2023/05/20 23:33:38;;;;;;;13.20;11.80;;;22.90;67.60;;;;;;222447;1264;22660;-42
2023/05/20 23:38:42;;;;;;;13.70;12.30;;;23.00;67.50;;;;;;222885;1257;22517;-42
2023/05/20 23:43:47;;;;;;;11.70;10.70;;;23.00;67.60;;;;;;221819;1260;22529;-43
2023/05/20 23:48:52;;;;;;;12.80;11.50;;;23.00;67.20;;;;;;222086;1259;22595;-44
2023/05/20 23:53:56;;;;;;;12.00;11.00;;;22.90;67.20;;;;;;221852;1256;24245;-43
2023/05/20 23:59:00;;;;;;;14.10;11.40;;;22.90;67.20;;;;;;221748;1265;24273;-43
